sensor_id;sensor_type;location;lat;lon;timestamp;temperature;humidity
13998;DHT22;7074;51.508;7.018;2022-10-13T00:01:31;11.10;99.90
13998;DHT22;7074;51.508;7.018;2022-10-13T00:03:58;11.20;99.90
13998;DHT22;7074;51.508;7.018;2022-10-13T00:06:25;11.20;99.90
13998;DHT22;7074;51.508;7.018;2022-10-13T00:08:54;11.20;99.90
13998;DHT22;7074;51.508;7.018;2022-10-13T00:11:23;11.20;99.90
13998;DHT22;7074;51.508;7.018;2022-10-13T00:13:54;11.20;99.90
13998;DHT22;7074;51.508;7.018;2022-10-13T00:16:23;11.20;99.90
13998;DHT22;7074;51.508;7.018;2022-10-13T00:18:50;11.20;99.90
13998;DHT22;7074;51.508;7.018;2022-10-13T00:21:20;11.20;99.90
13998;DHT22;7074;51.508;7.018;2022-10-13T00:23:48;11.20;99.90
13998;DHT22;7074;51.508;7.018;2022-10-13T00:26:21;11.30;99.90
13998;DHT22;7074;51.508;7.018;2022-10-13T00:28:48;11.20;99.90
13998;DHT22;7074;51.508;7.018;2022-10-13T00:31:17;11.20;99.90
13998;DHT22;7074;51.508;7.018;2022-10-13T00:33:44;11.20;99.90
13998;DHT22;7074;51.508;7.018;2022-10-13T00:36:12;11.20;99.90
13998;DHT22;7074;51.508;7.018;2022-10-13T00:38:39;11.20;99.90
13998;DHT22;7074;51.508;7.018;2022-10-13T00:41:07;11.20;99.90
13998;DHT22;7074;51.508;7.018;2022-10-13T00:43:51;11.20;99.90
13998;DHT22;7074;51.508;7.018;2022-10-13T00:46:19;11.20;99.90
13998;DHT22;7074;51.508;7.018;2022-10-13T00:48:55;11.20;99.90
13998;DHT22;7074;51.508;7.018;2022-10-13T00:51:28;11.20;99.90
13998;DHT22;7074;51.508;7.018;2022-10-13T00:53:56;11.30;99.90
13998;DHT22;7074;51.508;7.018;2022-10-13T00:56:25;11.30;99.90
13998;DHT22;7074;51.508;7.018;2022-10-13T00:58:55;11.20;99.90
13998;DHT22;7074;51.508;7.018;2022-10-13T01:01:23;11.20;99.90
13998;DHT22;7074;51.508;7.018;2022-10-13T01:03:51;11.20;99.90
13998;DHT22;7074;51.508;7.018;2022-10-13T01:06:18;11.20;99.90
13998;DHT22;7074;51.508;7.018;2022-10-13T01:08:45;11.20;99.90
13998;DHT22;7074;51.508;7.018;2022-10-13T01:11:23;11.30;99.90
13998;DHT22;7074;51.508;7.018;2022-10-13T01:13:58;11.30;99.90
13998;DHT22;7074;51.508;7.018;2022-10-13T01:16:33;11.30;99.90
13998;DHT22;7074;51.508;7.018;2022-10-13T01:19:27;11.40;99.90
13998;DHT22;7074;51.508;7.018;2022-10-13T01:22:09;11.50;99.90
13998;DHT22;7074;51.508;7.018;2022-10-13T01:24:46;11.60;99.90
13998;DHT22;7074;51.508;7.018;2022-10-13T01:27:58;11.60;99.90
13998;DHT22;7074;51.508;7.018;2022-10-13T01:30:32;11.70;99.90
13998;DHT22;7074;51.508;7.018;2022-10-13T01:33:22;11.70;99.90
13998;DHT22;7074;51.508;7.018;2022-10-13T01:36:03;11.70;99.90
13998;DHT22;7074;51.508;7.018;2022-10-13T01:38:38;11.80;99.90
13998;DHT22;7074;51.508;7.018;2022-10-13T01:41:13;11.80;99.90
13998;DHT22;7074;51.508;7.018;2022-10-13T01:43:49;11.90;99.90
13998;DHT22;7074;51.508;7.018;2022-10-13T01:46:22;11.90;99.90
13998;DHT22;7074;51.508;7.018;2022-10-13T01:48:53;12.00;99.90
13998;DHT22;7074;51.508;7.018;2022-10-13T01:51:23;12.00;99.90
13998;DHT22;7074;51.508;7.018;2022-10-13T01:53:52;12.10;99.90
13998;DHT22;7074;51.508;7.018;2022-10-13T01:56:19;12.10;99.90
13998;DHT22;7074;51.508;7.018;2022-10-13T01:58:47;12.20;99.90
13998;DHT22;7074;51.508;7.018;2022-10-13T02:01:31;12.20;99.90
13998;DHT22;7074;51.508;7.018;2022-10-13T02:04:12;12.20;99.90
13998;DHT22;7074;51.508;7.018;2022-10-13T02:06:45;12.30;99.90
13998;DHT22;7074;51.508;7.018;2022-10-13T02:09:20;12.30;99.90
13998;DHT22;7074;51.508;7.018;2022-10-13T02:11:54;12.40;99.90
13998;DHT22;7074;51.508;7.018;2022-10-13T02:14:24;12.40;99.90
13998;DHT22;7074;51.508;7.018;2022-10-13T02:16:57;12.40;99.90
13998;DHT22;7074;51.508;7.018;2022-10-13T02:19:26;12.40;99.90
13998;DHT22;7074;51.508;7.018;2022-10-13T02:21:55;12.50;99.90
13998;DHT22;7074;51.508;7.018;2022-10-13T02:24:23;12.50;99.90
13998;DHT22;7074;51.508;7.018;2022-10-13T02:26:51;12.50;99.90
13998;DHT22;7074;51.508;7.018;2022-10-13T02:29:19;12.50;99.90
13998;DHT22;7074;51.508;7.018;2022-10-13T02:31:46;12.50;99.90
13998;DHT22;7074;51.508;7.018;2022-10-13T02:34:15;12.60;99.90
13998;DHT22;7074;51.508;7.018;2022-10-13T02:36:45;12.60;99.90
13998;DHT22;7074;51.508;7.018;2022-10-13T02:39:13;12.60;99.90
13998;DHT22;7074;51.508;7.018;2022-10-13T02:41:40;12.60;99.90
13998;DHT22;7074;51.508;7.018;2022-10-13T02:44:07;12.60;99.90
13998;DHT22;7074;51.508;7.018;2022-10-13T02:46:39;12.60;99.90
13998;DHT22;7074;51.508;7.018;2022-10-13T02:49:08;12.60;99.90
13998;DHT22;7074;51.508;7.018;2022-10-13T02:51:37;12.70;99.90
13998;DHT22;7074;51.508;7.018;2022-10-13T02:54:04;12.70;99.90
13998;DHT22;7074;51.508;7.018;2022-10-13T02:56:32;12.80;99.90
13998;DHT22;7074;51.508;7.018;2022-10-13T02:58:59;12.80;99.90
13998;DHT22;7074;51.508;7.018;2022-10-13T03:01:26;12.80;99.90
13998;DHT22;7074;51.508;7.018;2022-10-13T03:03:53;12.80;99.90
13998;DHT22;7074;51.508;7.018;2022-10-13T03:06:20;12.80;99.90
13998;DHT22;7074;51.508;7.018;2022-10-13T03:08:49;12.90;99.90
13998;DHT22;7074;51.508;7.018;2022-10-13T03:11:16;12.90;99.90
13998;DHT22;7074;51.508;7.018;2022-10-13T03:13:43;12.90;99.90
13998;DHT22;7074;51.508;7.018;2022-10-13T03:16:11;13.00;99.90
13998;DHT22;7074;51.508;7.018;2022-10-13T03:18:38;13.10;99.90
13998;DHT22;7074;51.508;7.018;2022-10-13T03:21:06;13.00;99.90
13998;DHT22;7074;51.508;7.018;2022-10-13T03:23:34;13.00;99.90
13998;DHT22;7074;51.508;7.018;2022-10-13T03:26:04;13.10;99.90
13998;DHT22;7074;51.508;7.018;2022-10-13T03:28:31;13.00;99.90
13998;DHT22;7074;51.508;7.018;2022-10-13T03:31:00;13.10;99.90
13998;DHT22;7074;51.508;7.018;2022-10-13T03:33:27;13.10;99.90
13998;DHT22;7074;51.508;7.018;2022-10-13T03:35:57;13.10;99.90
13998;DHT22;7074;51.508;7.018;2022-10-13T03:38:26;13.10;99.90
13998;DHT22;7074;51.508;7.018;2022-10-13T03:40:53;13.20;99.90
13998;DHT22;7074;51.508;7.018;2022-10-13T03:43:23;13.10;99.90
13998;DHT22;7074;51.508;7.018;2022-10-13T03:45:54;13.10;99.90
13998;DHT22;7074;51.508;7.018;2022-10-13T03:48:22;13.10;99.90
13998;DHT22;7074;51.508;7.018;2022-10-13T03:50:50;13.10;99.90
13998;DHT22;7074;51.508;7.018;2022-10-13T03:53:17;13.10;99.90
13998;DHT22;7074;51.508;7.018;2022-10-13T03:55:48;13.10;99.90
13998;DHT22;7074;51.508;7.018;2022-10-13T03:58:15;13.10;99.90
13998;DHT22;7074;51.508;7.018;2022-10-13T04:00:46;13.20;99.90
13998;DHT22;7074;51.508;7.018;2022-10-13T04:03:13;13.10;99.90
13998;DHT22;7074;51.508;7.018;2022-10-13T04:05:41;13.20;99.90
13998;DHT22;7074;51.508;7.018;2022-10-13T04:08:08;13.20;99.90
13998;DHT22;7074;51.508;7.018;2022-10-13T04:10:36;13.30;99.90
13998;DHT22;7074;51.508;7.018;2022-10-13T04:13:04;13.20;99.90
13998;DHT22;7074;51.508;7.018;2022-10-13T04:15:35;13.30;99.90
13998;DHT22;7074;51.508;7.018;2022-10-13T04:18:07;13.30;99.90
13998;DHT22;7074;51.508;7.018;2022-10-13T04:20:38;13.30;99.90
13998;DHT22;7074;51.508;7.018;2022-10-13T04:23:06;13.30;99.90
13998;DHT22;7074;51.508;7.018;2022-10-13T04:25:41;13.30;99.90
13998;DHT22;7074;51.508;7.018;2022-10-13T04:28:12;13.30;99.90
13998;DHT22;7074;51.508;7.018;2022-10-13T04:30:40;13.20;99.90
13998;DHT22;7074;51.508;7.018;2022-10-13T04:33:09;13.30;99.90
13998;DHT22;7074;51.508;7.018;2022-10-13T04:35:38;13.30;99.90
13998;DHT22;7074;51.508;7.018;2022-10-13T04:38:09;13.30;99.90
13998;DHT22;7074;51.508;7.018;2022-10-13T04:40:37;13.40;99.90
13998;DHT22;7074;51.508;7.018;2022-10-13T04:43:04;13.50;99.90
13998;DHT22;7074;51.508;7.018;2022-10-13T04:45:32;13.50;99.90
13998;DHT22;7074;51.508;7.018;2022-10-13T04:47:59;13.50;99.90
13998;DHT22;7074;51.508;7.018;2022-10-13T04:50:28;13.40;99.90
13998;DHT22;7074;51.508;7.018;2022-10-13T04:56:23;13.50;99.90
13998;DHT22;7074;51.508;7.018;2022-10-13T04:59:56;13.50;99.90
13998;DHT22;7074;51.508;7.018;2022-10-13T05:03:18;13.50;99.90
13998;DHT22;7074;51.508;7.018;2022-10-13T05:10:00;13.50;99.90
13998;DHT22;7074;51.508;7.018;2022-10-13T05:16:10;13.60;99.90
13998;DHT22;7074;51.508;7.018;2022-10-13T05:23:09;13.60;99.90
13998;DHT22;7074;51.508;7.018;2022-10-13T05:25:43;13.60;99.90
13998;DHT22;7074;51.508;7.018;2022-10-13T05:28:48;13.60;99.90
13998;DHT22;7074;51.508;7.018;2022-10-13T05:31:44;13.50;99.90
13998;DHT22;7074;51.508;7.018;2022-10-13T05:34:49;13.50;99.90
13998;DHT22;7074;51.508;7.018;2022-10-13T05:38:48;13.50;99.90
13998;DHT22;7074;51.508;7.018;2022-10-13T05:44:26;13.50;99.90
13998;DHT22;7074;51.508;7.018;2022-10-13T05:47:12;13.50;99.90
13998;DHT22;7074;51.508;7.018;2022-10-13T05:49:57;13.60;99.90
13998;DHT22;7074;51.508;7.018;2022-10-13T05:52:51;13.60;99.90
13998;DHT22;7074;51.508;7.018;2022-10-13T06:09:52;13.70;99.90
13998;DHT22;7074;51.508;7.018;2022-10-13T06:12:19;13.70;99.90
13998;DHT22;7074;51.508;7.018;2022-10-13T06:19:45;13.80;99.90
13998;DHT22;7074;51.508;7.018;2022-10-13T06:29:47;13.90;99.90
13998;DHT22;7074;51.508;7.018;2022-10-13T07:06:43;14.00;99.90
13998;DHT22;7074;51.508;7.018;2022-10-13T07:09:22;14.10;99.90
13998;DHT22;7074;51.508;7.018;2022-10-13T07:11:51;14.10;99.90
13998;DHT22;7074;51.508;7.018;2022-10-13T07:14:25;14.10;99.90
13998;DHT22;7074;51.508;7.018;2022-10-13T07:17:24;14.10;99.90
13998;DHT22;7074;51.508;7.018;2022-10-13T07:20:29;14.10;99.90
13998;DHT22;7074;51.508;7.018;2022-10-13T07:23:12;14.10;99.90
13998;DHT22;7074;51.508;7.018;2022-10-13T07:26:11;14.10;99.90
13998;DHT22;7074;51.508;7.018;2022-10-13T07:32:00;14.30;99.90
13998;DHT22;7074;51.508;7.018;2022-10-13T07:38:29;14.50;99.90
13998;DHT22;7074;51.508;7.018;2022-10-13T07:41:12;14.50;99.90
13998;DHT22;7074;51.508;7.018;2022-10-13T07:43:53;14.60;99.90
13998;DHT22;7074;51.508;7.018;2022-10-13T07:50:00;14.60;99.90
13998;DHT22;7074;51.508;7.018;2022-10-13T07:57:34;14.70;99.90
13998;DHT22;7074;51.508;7.018;2022-10-13T08:00:23;14.80;99.90
13998;DHT22;7074;51.508;7.018;2022-10-13T08:48:40;15.40;99.90
13998;DHT22;7074;51.508;7.018;2022-10-13T08:52:05;15.50;99.90
13998;DHT22;7074;51.508;7.018;2022-10-13T08:55:43;15.50;99.90
13998;DHT22;7074;51.508;7.018;2022-10-13T09:02:29;15.60;99.90
13998;DHT22;7074;51.508;7.018;2022-10-13T09:04:48;15.70;99.90
13998;DHT22;7074;51.508;7.018;2022-10-13T09:07:36;15.60;99.90
13998;DHT22;7074;51.508;7.018;2022-10-13T09:12:08;15.70;99.90
13998;DHT22;7074;51.508;7.018;2022-10-13T09:15:18;15.80;99.90
13998;DHT22;7074;51.508;7.018;2022-10-13T09:18:10;15.90;99.90
13998;DHT22;7074;51.508;7.018;2022-10-13T09:20:38;16.10;99.90
13998;DHT22;7074;51.508;7.018;2022-10-13T09:23:17;16.00;99.90
13998;DHT22;7074;51.508;7.018;2022-10-13T09:25:46;16.20;99.90
13998;DHT22;7074;51.508;7.018;2022-10-13T09:28:18;16.30;99.90
13998;DHT22;7074;51.508;7.018;2022-10-13T09:30:46;16.40;99.90
13998;DHT22;7074;51.508;7.018;2022-10-13T09:33:21;16.40;99.90
13998;DHT22;7074;51.508;7.018;2022-10-13T09:36:13;16.40;99.90
13998;DHT22;7074;51.508;7.018;2022-10-13T09:43:21;16.70;99.90
13998;DHT22;7074;51.508;7.018;2022-10-13T09:49:56;16.80;99.90
13998;DHT22;7074;51.508;7.018;2022-10-13T09:58:49;17.20;99.90
13998;DHT22;7074;51.508;7.018;2022-10-13T10:10:33;17.50;99.90
13998;DHT22;7074;51.508;7.018;2022-10-13T10:30:13;17.60;99.90
13998;DHT22;7074;51.508;7.018;2022-10-13T10:31:33;17.60;99.90
13998;DHT22;7074;51.508;7.018;2022-10-13T10:34:39;17.60;99.90
13998;DHT22;7074;51.508;7.018;2022-10-13T10:42:07;17.60;99.90
13998;DHT22;7074;51.508;7.018;2022-10-13T10:48:43;17.80;99.90
13998;DHT22;7074;51.508;7.018;2022-10-13T10:51:51;17.80;99.90
13998;DHT22;7074;51.508;7.018;2022-10-13T10:55:33;18.00;99.90
13998;DHT22;7074;51.508;7.018;2022-10-13T11:02:48;18.20;99.90
13998;DHT22;7074;51.508;7.018;2022-10-13T11:10:14;18.60;99.90
13998;DHT22;7074;51.508;7.018;2022-10-13T11:48:04;18.70;99.90
13998;DHT22;7074;51.508;7.018;2022-10-13T11:51:45;18.70;99.90
13998;DHT22;7074;51.508;7.018;2022-10-13T11:54:57;18.70;99.90
13998;DHT22;7074;51.508;7.018;2022-10-13T11:57:26;18.80;99.90
13998;DHT22;7074;51.508;7.018;2022-10-13T12:02:11;18.80;99.90
13998;DHT22;7074;51.508;7.018;2022-10-13T12:08:03;18.80;99.90
13998;DHT22;7074;51.508;7.018;2022-10-13T12:13:57;18.70;99.90
13998;DHT22;7074;51.508;7.018;2022-10-13T12:17:35;18.50;99.90
13998;DHT22;7074;51.508;7.018;2022-10-13T12:20:52;18.50;99.90
13998;DHT22;7074;51.508;7.018;2022-10-13T12:23:40;18.50;99.90
13998;DHT22;7074;51.508;7.018;2022-10-13T12:27:07;18.40;99.90
13998;DHT22;7074;51.508;7.018;2022-10-13T12:32:15;18.40;99.90
13998;DHT22;7074;51.508;7.018;2022-10-13T12:41:16;18.00;99.90
13998;DHT22;7074;51.508;7.018;2022-10-13T12:44:11;17.90;99.90
13998;DHT22;7074;51.508;7.018;2022-10-13T12:46:43;17.90;99.90
13998;DHT22;7074;51.508;7.018;2022-10-13T12:49:13;17.90;99.90
13998;DHT22;7074;51.508;7.018;2022-10-13T12:51:42;17.90;99.90
13998;DHT22;7074;51.508;7.018;2022-10-13T12:54:18;17.80;99.90
13998;DHT22;7074;51.508;7.018;2022-10-13T12:56:47;17.80;99.90
13998;DHT22;7074;51.508;7.018;2022-10-13T12:59:16;17.70;99.90
13998;DHT22;7074;51.508;7.018;2022-10-13T13:01:55;17.70;99.90
13998;DHT22;7074;51.508;7.018;2022-10-13T13:04:30;17.70;99.90
13998;DHT22;7074;51.508;7.018;2022-10-13T13:06:59;17.70;99.90
13998;DHT22;7074;51.508;7.018;2022-10-13T13:09:28;17.50;99.90
13998;DHT22;7074;51.508;7.018;2022-10-13T13:12:18;17.60;99.90
13998;DHT22;7074;51.508;7.018;2022-10-13T13:14:47;17.70;99.90
13998;DHT22;7074;51.508;7.018;2022-10-13T13:17:24;17.60;99.90
13998;DHT22;7074;51.508;7.018;2022-10-13T13:19:52;17.70;99.90
13998;DHT22;7074;51.508;7.018;2022-10-13T13:22:20;17.70;99.90
13998;DHT22;7074;51.508;7.018;2022-10-13T13:24:49;17.70;99.90
13998;DHT22;7074;51.508;7.018;2022-10-13T13:27:19;17.60;99.90
13998;DHT22;7074;51.508;7.018;2022-10-13T13:29:48;17.70;99.90
13998;DHT22;7074;51.508;7.018;2022-10-13T13:32:17;17.60;99.90
13998;DHT22;7074;51.508;7.018;2022-10-13T13:34:46;17.60;99.90
13998;DHT22;7074;51.508;7.018;2022-10-13T13:37:21;17.60;99.90
13998;DHT22;7074;51.508;7.018;2022-10-13T13:39:49;17.60;99.90
13998;DHT22;7074;51.508;7.018;2022-10-13T13:42:17;17.60;99.90
13998;DHT22;7074;51.508;7.018;2022-10-13T13:44:46;17.60;99.90
13998;DHT22;7074;51.508;7.018;2022-10-13T13:47:18;17.50;99.90
13998;DHT22;7074;51.508;7.018;2022-10-13T13:49:48;17.60;99.90
13998;DHT22;7074;51.508;7.018;2022-10-13T13:52:16;17.60;99.90
13998;DHT22;7074;51.508;7.018;2022-10-13T13:54:44;17.60;99.90
13998;DHT22;7074;51.508;7.018;2022-10-13T13:57:12;17.60;99.90
13998;DHT22;7074;51.508;7.018;2022-10-13T13:59:40;17.60;99.90
13998;DHT22;7074;51.508;7.018;2022-10-13T14:02:13;17.60;99.90
13998;DHT22;7074;51.508;7.018;2022-10-13T14:04:40;17.70;99.90
13998;DHT22;7074;51.508;7.018;2022-10-13T14:07:09;17.70;99.90
13998;DHT22;7074;51.508;7.018;2022-10-13T14:09:37;17.70;99.90
13998;DHT22;7074;51.508;7.018;2022-10-13T14:12:05;17.70;99.90
13998;DHT22;7074;51.508;7.018;2022-10-13T14:14:32;17.70;99.90
13998;DHT22;7074;51.508;7.018;2022-10-13T14:17:00;17.60;99.90
13998;DHT22;7074;51.508;7.018;2022-10-13T14:19:28;17.60;99.90
13998;DHT22;7074;51.508;7.018;2022-10-13T14:21:56;17.60;99.90
13998;DHT22;7074;51.508;7.018;2022-10-13T14:24:25;17.60;99.90
13998;DHT22;7074;51.508;7.018;2022-10-13T14:26:52;17.50;99.90
13998;DHT22;7074;51.508;7.018;2022-10-13T14:29:19;17.40;99.90
13998;DHT22;7074;51.508;7.018;2022-10-13T14:31:46;17.40;99.90
13998;DHT22;7074;51.508;7.018;2022-10-13T14:34:13;17.40;99.90
13998;DHT22;7074;51.508;7.018;2022-10-13T14:36:40;17.40;99.90
13998;DHT22;7074;51.508;7.018;2022-10-13T14:39:08;17.30;99.90
13998;DHT22;7074;51.508;7.018;2022-10-13T14:41:36;17.30;99.90
13998;DHT22;7074;51.508;7.018;2022-10-13T14:44:04;17.30;99.90
13998;DHT22;7074;51.508;7.018;2022-10-13T14:46:31;17.30;99.90
13998;DHT22;7074;51.508;7.018;2022-10-13T14:48:59;17.30;99.90
13998;DHT22;7074;51.508;7.018;2022-10-13T14:51:26;17.20;99.90
13998;DHT22;7074;51.508;7.018;2022-10-13T14:53:53;17.20;99.90
13998;DHT22;7074;51.508;7.018;2022-10-13T14:56:22;17.20;99.90
13998;DHT22;7074;51.508;7.018;2022-10-13T14:58:53;17.20;99.90
13998;DHT22;7074;51.508;7.018;2022-10-13T15:01:23;17.20;99.90
13998;DHT22;7074;51.508;7.018;2022-10-13T15:03:50;17.10;99.90
13998;DHT22;7074;51.508;7.018;2022-10-13T15:06:19;17.10;99.90
13998;DHT22;7074;51.508;7.018;2022-10-13T15:08:47;17.10;99.90
13998;DHT22;7074;51.508;7.018;2022-10-13T15:11:16;17.10;99.90
13998;DHT22;7074;51.508;7.018;2022-10-13T15:13:43;17.10;99.90
13998;DHT22;7074;51.508;7.018;2022-10-13T15:16:16;17.10;99.90
13998;DHT22;7074;51.508;7.018;2022-10-13T15:18:43;17.10;99.90
13998;DHT22;7074;51.508;7.018;2022-10-13T15:21:11;17.10;99.90
13998;DHT22;7074;51.508;7.018;2022-10-13T15:23:39;17.10;99.90
13998;DHT22;7074;51.508;7.018;2022-10-13T15:26:06;17.00;99.90
13998;DHT22;7074;51.508;7.018;2022-10-13T15:28:36;17.10;99.90
13998;DHT22;7074;51.508;7.018;2022-10-13T15:31:05;17.00;99.90
13998;DHT22;7074;51.508;7.018;2022-10-13T15:33:34;17.00;99.90
13998;DHT22;7074;51.508;7.018;2022-10-13T15:36:01;17.00;99.90
13998;DHT22;7074;51.508;7.018;2022-10-13T15:38:28;16.90;99.90
13998;DHT22;7074;51.508;7.018;2022-10-13T15:40:59;16.90;99.90
13998;DHT22;7074;51.508;7.018;2022-10-13T15:43:26;16.90;99.90
13998;DHT22;7074;51.508;7.018;2022-10-13T15:45:58;16.80;99.90
13998;DHT22;7074;51.508;7.018;2022-10-13T15:48:27;16.80;99.90
13998;DHT22;7074;51.508;7.018;2022-10-13T15:50:56;16.80;99.90
13998;DHT22;7074;51.508;7.018;2022-10-13T15:53:23;16.80;99.90
13998;DHT22;7074;51.508;7.018;2022-10-13T15:55:50;16.80;99.90
13998;DHT22;7074;51.508;7.018;2022-10-13T15:58:18;16.90;99.90
13998;DHT22;7074;51.508;7.018;2022-10-13T16:00:45;16.80;99.90
13998;DHT22;7074;51.508;7.018;2022-10-13T16:03:14;16.90;99.90
13998;DHT22;7074;51.508;7.018;2022-10-13T16:05:42;16.80;99.90
13998;DHT22;7074;51.508;7.018;2022-10-13T16:08:11;16.80;99.90
13998;DHT22;7074;51.508;7.018;2022-10-13T16:10:39;16.70;99.90
13998;DHT22;7074;51.508;7.018;2022-10-13T16:13:06;16.70;99.90
13998;DHT22;7074;51.508;7.018;2022-10-13T16:15:34;16.70;99.90
13998;DHT22;7074;51.508;7.018;2022-10-13T16:18:01;16.70;99.90
13998;DHT22;7074;51.508;7.018;2022-10-13T16:20:29;16.70;99.90
13998;DHT22;7074;51.508;7.018;2022-10-13T16:23:03;16.70;99.90
13998;DHT22;7074;51.508;7.018;2022-10-13T16:25:31;16.70;99.90
13998;DHT22;7074;51.508;7.018;2022-10-13T16:27:59;16.70;99.90
13998;DHT22;7074;51.508;7.018;2022-10-13T16:30:26;16.60;99.90
13998;DHT22;7074;51.508;7.018;2022-10-13T16:32:55;16.70;99.90
13998;DHT22;7074;51.508;7.018;2022-10-13T16:35:22;16.70;99.90
13998;DHT22;7074;51.508;7.018;2022-10-13T16:37:50;16.70;99.90
13998;DHT22;7074;51.508;7.018;2022-10-13T16:40:17;16.70;99.90
13998;DHT22;7074;51.508;7.018;2022-10-13T16:42:46;16.70;99.90
13998;DHT22;7074;51.508;7.018;2022-10-13T16:45:13;16.70;99.90
13998;DHT22;7074;51.508;7.018;2022-10-13T16:47:47;16.70;99.90
13998;DHT22;7074;51.508;7.018;2022-10-13T16:50:16;16.70;99.90
13998;DHT22;7074;51.508;7.018;2022-10-13T16:52:43;16.60;99.90
13998;DHT22;7074;51.508;7.018;2022-10-13T16:55:12;16.60;99.90
13998;DHT22;7074;51.508;7.018;2022-10-13T16:57:41;16.60;99.90
13998;DHT22;7074;51.508;7.018;2022-10-13T17:00:12;16.60;99.90
13998;DHT22;7074;51.508;7.018;2022-10-13T17:02:39;16.60;99.90
13998;DHT22;7074;51.508;7.018;2022-10-13T17:05:26;16.50;99.90
13998;DHT22;7074;51.508;7.018;2022-10-13T17:08:09;16.50;99.90
13998;DHT22;7074;51.508;7.018;2022-10-13T17:10:43;16.30;99.90
13998;DHT22;7074;51.508;7.018;2022-10-13T17:13:10;16.30;99.90
13998;DHT22;7074;51.508;7.018;2022-10-13T17:15:39;16.20;99.90
13998;DHT22;7074;51.508;7.018;2022-10-13T17:18:30;16.20;99.90
13998;DHT22;7074;51.508;7.018;2022-10-13T17:22:20;16.10;99.90
13998;DHT22;7074;51.508;7.018;2022-10-13T17:25:06;16.10;99.90
13998;DHT22;7074;51.508;7.018;2022-10-13T17:28:22;16.10;99.90
13998;DHT22;7074;51.508;7.018;2022-10-13T17:30:59;16.00;99.90
13998;DHT22;7074;51.508;7.018;2022-10-13T17:33:27;16.00;99.90
13998;DHT22;7074;51.508;7.018;2022-10-13T17:35:58;15.90;99.90
13998;DHT22;7074;51.508;7.018;2022-10-13T17:38:26;16.00;99.90
13998;DHT22;7074;51.508;7.018;2022-10-13T17:41:10;16.00;99.90
13998;DHT22;7074;51.508;7.018;2022-10-13T17:44:03;16.00;99.90
13998;DHT22;7074;51.508;7.018;2022-10-13T17:46:33;15.90;99.90
13998;DHT22;7074;51.508;7.018;2022-10-13T17:49:00;15.90;99.90
13998;DHT22;7074;51.508;7.018;2022-10-13T17:51:27;15.90;99.90
13998;DHT22;7074;51.508;7.018;2022-10-13T17:53:57;15.90;99.90
13998;DHT22;7074;51.508;7.018;2022-10-13T17:56:53;15.90;99.90
13998;DHT22;7074;51.508;7.018;2022-10-13T18:00:10;15.90;99.90
13998;DHT22;7074;51.508;7.018;2022-10-13T18:03:01;15.90;99.90
13998;DHT22;7074;51.508;7.018;2022-10-13T18:05:30;15.90;99.90
13998;DHT22;7074;51.508;7.018;2022-10-13T18:08:01;15.90;99.90
13998;DHT22;7074;51.508;7.018;2022-10-13T18:10:28;15.80;99.90
13998;DHT22;7074;51.508;7.018;2022-10-13T18:13:00;15.90;99.90
13998;DHT22;7074;51.508;7.018;2022-10-13T18:15:52;15.90;99.90
13998;DHT22;7074;51.508;7.018;2022-10-13T18:18:21;15.90;99.90
13998;DHT22;7074;51.508;7.018;2022-10-13T18:20:48;15.90;99.90
13998;DHT22;7074;51.508;7.018;2022-10-13T18:23:18;15.90;99.90
13998;DHT22;7074;51.508;7.018;2022-10-13T18:26:03;15.90;99.90
13998;DHT22;7074;51.508;7.018;2022-10-13T18:28:31;15.80;99.90
13998;DHT22;7074;51.508;7.018;2022-10-13T18:31:06;15.80;99.90
13998;DHT22;7074;51.508;7.018;2022-10-13T18:34:17;15.80;99.90
13998;DHT22;7074;51.508;7.018;2022-10-13T18:37:10;15.80;99.90
13998;DHT22;7074;51.508;7.018;2022-10-13T18:39:37;15.80;99.90
13998;DHT22;7074;51.508;7.018;2022-10-13T18:42:04;15.80;99.90
13998;DHT22;7074;51.508;7.018;2022-10-13T18:44:40;15.80;99.90
13998;DHT22;7074;51.508;7.018;2022-10-13T18:47:50;15.80;99.90
13998;DHT22;7074;51.508;7.018;2022-10-13T18:50:19;15.80;99.90
13998;DHT22;7074;51.508;7.018;2022-10-13T18:52:46;15.80;99.90
13998;DHT22;7074;51.508;7.018;2022-10-13T18:55:19;15.80;99.90
13998;DHT22;7074;51.508;7.018;2022-10-13T18:58:06;15.70;99.90
13998;DHT22;7074;51.508;7.018;2022-10-13T19:00:35;15.80;99.90
13998;DHT22;7074;51.508;7.018;2022-10-13T19:03:02;15.80;99.90
13998;DHT22;7074;51.508;7.018;2022-10-13T19:05:36;15.80;99.90
13998;DHT22;7074;51.508;7.018;2022-10-13T19:08:04;15.80;99.90
13998;DHT22;7074;51.508;7.018;2022-10-13T19:10:34;15.80;99.90
13998;DHT22;7074;51.508;7.018;2022-10-13T19:13:02;15.80;99.90
13998;DHT22;7074;51.508;7.018;2022-10-13T19:15:30;15.80;99.90
13998;DHT22;7074;51.508;7.018;2022-10-13T19:17:58;15.80;99.90
13998;DHT22;7074;51.508;7.018;2022-10-13T19:20:26;15.80;99.90
13998;DHT22;7074;51.508;7.018;2022-10-13T19:23:13;15.80;99.90
13998;DHT22;7074;51.508;7.018;2022-10-13T19:25:41;15.80;99.90
13998;DHT22;7074;51.508;7.018;2022-10-13T19:28:26;15.80;99.90
13998;DHT22;7074;51.508;7.018;2022-10-13T19:35:10;15.80;99.90
13998;DHT22;7074;51.508;7.018;2022-10-13T20:00:19;15.70;99.90
13998;DHT22;7074;51.508;7.018;2022-10-13T20:02:46;15.70;99.90
13998;DHT22;7074;51.508;7.018;2022-10-13T20:05:14;15.80;99.90
13998;DHT22;7074;51.508;7.018;2022-10-13T20:07:41;15.70;99.90
13998;DHT22;7074;51.508;7.018;2022-10-13T20:10:08;15.80;99.90
13998;DHT22;7074;51.508;7.018;2022-10-13T20:13:22;15.80;99.90
13998;DHT22;7074;51.508;7.018;2022-10-13T20:27:31;15.80;99.90
13998;DHT22;7074;51.508;7.018;2022-10-13T20:29:58;15.80;99.90
13998;DHT22;7074;51.508;7.018;2022-10-13T20:32:49;15.80;99.90
13998;DHT22;7074;51.508;7.018;2022-10-13T20:35:28;15.80;99.90
13998;DHT22;7074;51.508;7.018;2022-10-13T20:37:57;15.90;99.90
13998;DHT22;7074;51.508;7.018;2022-10-13T20:40:27;15.80;99.90
13998;DHT22;7074;51.508;7.018;2022-10-13T20:47:34;15.90;99.90
13998;DHT22;7074;51.508;7.018;2022-10-13T20:50:40;15.80;99.90
13998;DHT22;7074;51.508;7.018;2022-10-13T20:53:19;15.80;99.90
13998;DHT22;7074;51.508;7.018;2022-10-13T20:56:30;15.80;99.90
13998;DHT22;7074;51.508;7.018;2022-10-13T20:59:09;15.80;99.90
13998;DHT22;7074;51.508;7.018;2022-10-13T21:01:57;15.80;99.90
13998;DHT22;7074;51.508;7.018;2022-10-13T21:12:07;15.70;99.90
13998;DHT22;7074;51.508;7.018;2022-10-13T21:14:36;15.70;99.90
13998;DHT22;7074;51.508;7.018;2022-10-13T21:17:18;15.70;99.90
13998;DHT22;7074;51.508;7.018;2022-10-13T21:24:17;15.60;99.90
13998;DHT22;7074;51.508;7.018;2022-10-13T21:35:09;15.50;99.90
13998;DHT22;7074;51.508;7.018;2022-10-13T21:38:05;15.50;99.90
13998;DHT22;7074;51.508;7.018;2022-10-13T21:44:54;15.40;99.90
13998;DHT22;7074;51.508;7.018;2022-10-13T21:48:30;15.40;99.90
13998;DHT22;7074;51.508;7.018;2022-10-13T21:51:16;15.40;99.90
13998;DHT22;7074;51.508;7.018;2022-10-13T21:53:47;15.40;99.90
13998;DHT22;7074;51.508;7.018;2022-10-13T21:56:16;15.40;99.90
13998;DHT22;7074;51.508;7.018;2022-10-13T21:59:00;15.30;99.90
13998;DHT22;7074;51.508;7.018;2022-10-13T22:02:43;15.40;99.90
13998;DHT22;7074;51.508;7.018;2022-10-13T22:05:58;15.40;99.90